Anta, Argentina
Current Conditions -  °F | °C
As of 12:00 PM on Wednesday 22 Oct 2014 (Local Time) from SASJ Reporting Station
Scattered Clouds Scattered Clouds  
Wind Chill: 29°   Ceiling: Unl
Heat Index: 29°   Visibility: 6mi
Dew Point: 15°   Wind: 9mph
Humidity: 42%   Direction: 90°E
Pressure: 30.03"   Gusts: NA
Location:  24.92°S, 64.47°W
Report Text: SASJ 221500Z 09008KT 9999 FEW030 SCT20029/15 Q1017
Loading
Personal Weather Stations






























Interactive Weather Map
Tropical Storm Tracking
New forecast layout! Learn more

10-Day Weather Forecast

Advertisements
Track Severe Weather on mobile